Time;durP1;ratioP1;P1;durP2;ratioP2;P2;SDS_P1;SDS_P2;PMS_P1;PMS_P2;Temp;Humidity;BMP_temperature;BMP_pressure;BME280_temperature;BME280_humidity;BME280_pressure;Samples;Min_cycle;Max_cycle;Signal;HPM_P1;HPM_P2
2022/12/31 00:01:40;;;;;;;40.05;23.98;;;;;;;4.43;85.32;100569.61;1726367;81;25805;-76
2022/12/31 00:04:07;;;;;;;42.53;22.95;;;;;;;4.39;85.39;100561.61;1723885;81;26113;-76
2022/12/31 00:06:34;;;;;;;38.65;22.17;;;;;;;4.35;85.50;100554.45;1752302;80;25795;-76
2022/12/31 00:09:05;;;;;;;35.83;21.20;;;;;;;4.34;85.62;100547.98;1739697;80;27437;-76
2022/12/31 00:11:34;;;;;;;38.42;21.93;;;;;;;4.30;85.86;100547.94;1716353;82;25719;-76
2022/12/31 00:14:01;;;;;;;36.35;22.10;;;;;;;4.29;86.10;100544.45;1724548;81;26553;-76
2022/12/31 00:16:32;;;;;;;37.45;22.05;;;;;;;4.30;86.18;100538.66;1740927;80;25866;-76
2022/12/31 00:19:00;;;;;;;37.10;22.05;;;;;;;4.31;86.21;100538.98;1721960;81;26489;-76
2022/12/31 00:21:29;;;;;;;32.70;19.57;;;;;;;4.33;86.31;100539.67;1735948;81;27631;-75
2022/12/31 00:23:56;;;;;;;39.67;20.90;;;;;;;4.33;86.39;100527.73;1740306;81;26350;-76
2022/12/31 00:26:26;;;;;;;34.65;19.42;;;;;;;4.37;86.50;100523.80;1747568;80;25770;-76
2022/12/31 00:28:55;;;;;;;39.23;21.80;;;;;;;4.41;86.49;100525.17;1733039;81;25778;-76
2022/12/31 00:31:25;;;;;;;38.58;22.73;;;;;;;4.45;86.44;100522.55;1694860;82;25842;-76
2022/12/31 00:33:52;;;;;;;36.30;20.43;;;;;;;4.48;86.31;100516.97;1713751;82;27510;-76
2022/12/31 00:36:22;;;;;;;32.95;19.15;;;;;;;4.51;86.25;100508.72;1722545;82;26378;-75
2022/12/31 00:38:52;;;;;;;32.95;19.17;;;;;;;4.54;86.19;100508.41;1729237;82;26504;-76
2022/12/31 00:41:20;;;;;;;31.17;20.20;;;;;;;4.55;86.18;100506.95;1725680;82;26570;-76
2022/12/31 00:43:47;;;;;;;27.25;17.87;;;;;;;4.58;86.28;100505.30;1727883;82;26398;-76
2022/12/31 00:46:14;;;;;;;27.22;15.98;;;;;;;4.58;86.23;100496.50;1725797;82;28289;-76
2022/12/31 00:48:40;;;;;;;32.60;16.97;;;;;;;4.60;86.25;100490.55;1729682;82;25938;-75
2022/12/31 00:51:11;;;;;;;30.30;16.90;;;;;;;4.62;86.30;100490.75;1729418;82;25796;-76
2022/12/31 00:53:37;;;;;;;30.45;16.67;;;;;;;4.65;86.31;100486.48;1703559;83;33030;-75
2022/12/31 00:56:15;;;;;;;26.62;16.85;;;;;;;4.66;86.28;100483.34;1701989;82;25966;-76
2022/12/31 00:58:42;;;;;;;27.62;15.85;;;;;;;4.68;86.31;100488.00;1678837;82;28273;-76
2022/12/31 01:01:27;;;;;;;23.67;14.95;;;;;;;4.67;86.39;100487.16;1715628;83;25871;-76
2022/12/31 01:04:01;;;;;;;25.80;15.10;;;;;;;4.67;86.49;100482.34;1733063;80;25939;-75
2022/12/31 01:06:27;;;;;;;28.60;16.23;;;;;;;4.65;86.64;100487.81;1712539;83;25792;-76
2022/12/31 01:08:54;;;;;;;24.77;14.90;;;;;;;4.66;86.78;100482.02;1717359;82;26502;-76
2022/12/31 01:11:22;;;;;;;26.57;15.08;;;;;;;4.67;87.00;100487.16;1718695;83;27531;-76
2022/12/31 01:14:02;;;;;;;26.37;15.15;;;;;;;4.70;87.34;100493.47;1713418;82;25703;-76
2022/12/31 01:16:33;;;;;;;27.02;14.85;;;;;;;4.73;87.47;100492.86;1705780;83;26051;-76
2022/12/31 01:19:04;;;;;;;28.73;17.10;;;;;;;4.75;87.65;100490.37;1717582;82;25769;-76
2022/12/31 01:21:32;;;;;;;23.87;14.73;;;;;;;4.81;87.87;100495.58;1716499;83;25884;-76
2022/12/31 01:23:59;;;;;;;28.87;17.17;;;;;;;4.83;87.90;100479.85;1710586;82;27440;-77
2022/12/31 01:26:27;;;;;;;28.50;16.25;;;;;;;4.88;87.85;100474.05;1711675;83;26828;-76
2022/12/31 01:28:53;;;;;;;26.35;16.23;;;;;;;4.90;87.85;100472.11;1743953;80;26153;-76
2022/12/31 01:31:22;;;;;;;25.40;17.25;;;;;;;4.93;87.96;100454.53;1708619;83;26530;-76
2022/12/31 01:33:50;;;;;;;28.80;16.82;;;;;;;4.95;88.05;100436.15;1716516;83;25725;-76
2022/12/31 01:36:21;;;;;;;29.87;17.07;;;;;;;5.00;88.08;100437.85;1703924;83;27515;-76
2022/12/31 01:38:48;;;;;;;29.98;16.67;;;;;;;5.04;88.10;100438.37;1708324;83;25592;-76
2022/12/31 01:41:22;;;;;;;30.00;17.23;;;;;;;5.06;88.16;100437.23;1704700;83;25708;-76
2022/12/31 01:43:53;;;;;;;30.43;16.23;;;;;;;5.09;88.15;100426.28;1706519;83;26556;-76
2022/12/31 01:46:35;;;;;;;;;;;;;;;5.13;88.11;100416.20;1707337;83;25868;-76
2022/12/31 01:49:09;;;;;;;25.23;14.58;;;;;;;5.15;88.17;100415.06;1707896;83;28396;-75
2022/12/31 01:51:38;;;;;;;28.15;15.08;;;;;;;5.17;88.25;100416.22;1692142;81;26455;-76
2022/12/31 01:54:08;;;;;;;24.12;15.20;;;;;;;5.20;88.22;100415.41;1729364;81;25843;-76
2022/12/31 01:56:37;;;;;;;27.82;16.95;;;;;;;5.24;88.25;100417.23;1696482;83;26572;-76
2022/12/31 01:59:07;;;;;;;25.17;14.68;;;;;;;5.26;88.28;100404.15;1696184;83;25926;-76
2022/12/31 02:01:36;;;;;;;28.05;16.20;;;;;;;5.30;88.21;100399.37;1701678;83;27460;-76
2022/12/31 02:04:11;;;;;;;26.65;16.27;;;;;;;5.32;88.19;100406.17;1702612;83;26080;-76
2022/12/31 02:07:01;;;;;;;23.57;14.78;;;;;;;5.36;88.18;100393.43;1712758;83;25622;-76
2022/12/31 02:09:28;;;;;;;21.20;14.28;;;;;;;5.38;88.25;100398.92;1703662;83;26366;-76
2022/12/31 02:11:55;;;;;;;25.60;15.32;;;;;;;5.40;88.36;100386.31;1710101;83;25784;-76
2022/12/31 02:14:38;;;;;;;24.43;14.47;;;;;;;5.43;88.55;100371.38;1713154;82;27472;-76
2022/12/31 02:17:31;;;;;;;21.68;14.45;;;;;;;5.47;88.71;100366.07;1712886;83;25785;-76
2022/12/31 02:20:40;;;;;;;27.20;15.38;;;;;;;5.52;89.01;100365.59;1713472;83;26066;-76
2022/12/31 02:23:35;;;;;;;27.75;14.95;;;;;;;5.58;89.11;100354.84;1710522;83;25936;-76
2022/12/31 02:26:16;;;;;;;25.82;16.07;;;;;;;5.61;89.16;100354.02;1730391;81;26330;-76
2022/12/31 02:29:35;;;;;;;28.57;15.45;;;;;;;5.67;89.16;100362.66;1680888;83;28300;-76
2022/12/31 02:32:40;;;;;;;29.72;17.77;;;;;;;5.72;89.18;100356.88;1705268;83;25999;-76
2022/12/31 02:35:15;;;;;;;32.93;16.60;;;;;;;5.75;89.12;100364.02;1665251;84;26507;-76
2022/12/31 02:37:46;;;;;;;28.85;17.37;;;;;;;5.80;89.03;100363.53;1660898;85;25845;-76
2022/12/31 02:40:17;;;;;;;30.48;16.55;;;;;;;5.82;88.95;100370.36;1700854;82;25693;-76
2022/12/31 02:42:44;;;;;;;26.75;16.23;;;;;;;5.84;88.90;100372.39;1719321;82;27471;-76
2022/12/31 02:45:15;;;;;;;28.12;16.35;;;;;;;5.87;88.81;100368.58;1714618;83;25908;-76
2022/12/31 02:47:55;;;;;;;26.40;16.40;;;;;;;5.89;88.74;100363.44;1722612;82;25808;-76
2022/12/31 02:50:27;;;;;;;25.85;16.20;;;;;;;5.92;88.61;100370.27;1722192;82;25750;-76
2022/12/31 02:53:02;;;;;;;30.45;17.60;;;;;;;5.93;88.55;100375.41;1714712;82;25507;-76
2022/12/31 02:55:43;;;;;;;31.25;16.95;;;;;;;5.95;88.49;100374.75;1686479;83;27714;-76
2022/12/31 02:58:17;;;;;;;25.55;17.05;;;;;;;5.95;88.49;100376.08;1699034;83;25781;-76
2022/12/31 03:03:39;;;;;;;32.53;18.60;;;;;;;5.98;88.46;100380.24;1697084;83;25792;-76
2022/12/31 03:06:08;;;;;;;28.77;18.32;;;;;;;5.98;88.47;100374.92;1723734;82;25841;-77
2022/12/31 03:09:11;;;;;;;32.17;19.27;;;;;;;6.00;88.47;100385.73;1711078;82;27030;-76
2022/12/31 03:12:44;;;;;;;36.33;20.40;;;;;;;6.02;88.45;100398.86;1709303;82;26523;-76
2022/12/31 03:13:32;;;;;;;31.82;19.23;;;;;;;6.04;88.46;100387.56;1708413;82;25820;-76
2022/12/31 03:15:59;;;;;;;31.93;18.10;;;;;;;6.05;88.39;100382.08;1739410;80;25750;-77
2022/12/31 03:22:26;;;;;;;28.95;17.98;;;;;;;6.07;88.36;100389.39;1725888;82;26394;-76
2022/12/31 03:23:42;;;;;;;32.93;19.12;;;;;;;6.09;88.32;100390.58;1700793;82;25759;-76
2022/12/31 03:26:10;;;;;;;;;;;;;;;6.10;88.30;100390.41;1702557;82;25778;-76
2022/12/31 03:28:39;;;;;;;30.88;18.62;;;;;;;6.11;88.33;100396.56;1703310;82;25786;-76
2022/12/31 03:31:06;;;;;;;30.60;19.25;;;;;;;6.12;88.40;100394.22;1714963;83;25853;-77
2022/12/31 03:33:38;;;;;;;35.58;19.92;;;;;;;6.14;88.40;100396.22;1720113;82;27660;-77
2022/12/31 03:36:09;;;;;;;31.65;19.37;;;;;;;6.15;88.39;100392.09;1696171;83;25820;-76
2022/12/31 03:38:36;;;;;;;29.18;18.77;;;;;;;6.16;88.35;100393.73;1671213;84;26142;-76
2022/12/31 03:41:03;;;;;;;31.33;19.73;;;;;;;6.18;88.36;100377.11;1713529;83;26567;-76
2022/12/31 03:43:29;;;;;;;32.60;18.55;;;;;;;6.19;88.36;100383.27;1696498;83;25832;-77
2022/12/31 03:45:58;;;;;;;30.57;18.82;;;;;;;6.21;88.42;100382.61;1702347;83;27462;-76
2022/12/31 03:48:25;;;;;;;31.62;19.48;;;;;;;6.23;88.46;100394.75;1697618;83;26444;-76
2022/12/31 03:50:51;;;;;;;31.48;19.23;;;;;;;6.24;88.45;100391.08;1694572;83;25750;-77
2022/12/31 03:53:18;;;;;;;31.05;19.95;;;;;;;6.26;88.48;100398.08;1682871;83;26524;-76
2022/12/31 03:55:44;;;;;;;31.82;19.48;;;;;;;6.28;88.49;100398.75;1709427;83;25876;-76
2022/12/31 03:58:10;;;;;;;31.87;20.02;;;;;;;6.30;88.54;100403.40;1708554;83;26943;-76
2022/12/31 04:00:36;;;;;;;32.55;18.90;;;;;;;6.32;88.58;100410.72;1709631;83;25742;-77
2022/12/31 04:03:03;;;;;;;32.25;19.00;;;;;;;6.34;88.54;100403.41;1686402;83;25943;-76
2022/12/31 04:05:30;;;;;;;32.45;20.52;;;;;;;6.36;88.62;100407.56;1680776;84;25859;-77
2022/12/31 04:07:56;;;;;;;33.25;19.60;;;;;;;6.38;88.69;100401.59;1700585;82;25991;-76
2022/12/31 04:10:22;;;;;;;36.63;20.05;;;;;;;6.40;88.62;100394.77;1700233;83;27460;-77
2022/12/31 04:12:48;;;;;;;33.58;20.20;;;;;;;6.42;88.58;100388.77;1707372;82;26585;-76
2022/12/31 04:15:18;;;;;;;34.98;20.82;;;;;;;6.42;88.61;100388.28;1700560;82;25359;-76
2022/12/31 04:17:46;;;;;;;36.30;20.17;;;;;;;6.45;88.64;100388.45;1700886;83;25936;-77
2022/12/31 04:20:13;;;;;;;33.63;19.77;;;;;;;6.46;88.69;100394.13;1703234;82;25999;-76
2022/12/31 04:22:39;;;;;;;33.73;21.15;;;;;;;6.46;88.68;100380.83;1703560;82;27641;-76
2022/12/31 04:25:10;;;;;;;36.38;20.70;;;;;;;6.47;88.70;100384.64;1708828;82;25775;-76
2022/12/31 04:27:39;;;;;;;37.03;20.67;;;;;;;6.47;88.67;100387.30;1701018;83;26199;-77
2022/12/31 04:30:09;;;;;;;33.40;20.92;;;;;;;6.49;88.76;100385.30;1696391;82;25884;-76
2022/12/31 04:32:35;;;;;;;33.18;21.55;;;;;;;6.50;88.73;100388.80;1704737;83;25853;-76
2022/12/31 04:35:02;;;;;;;33.30;20.10;;;;;;;6.50;88.72;100390.94;1715779;81;28360;-76
2022/12/31 04:37:28;;;;;;;34.63;19.87;;;;;;;6.51;88.78;100399.27;1735186;81;26424;-76
2022/12/31 04:39:54;;;;;;;30.12;19.05;;;;;;;6.53;88.83;100391.95;1734001;81;26504;-76
2022/12/31 04:42:21;;;;;;;32.05;18.77;;;;;;;6.54;88.89;100380.33;1739570;80;26535;-76
2022/12/31 04:44:47;;;;;;;36.63;21.00;;;;;;;6.57;88.96;100391.11;1708941;83;25984;-76
2022/12/31 04:47:13;;;;;;;37.17;19.87;;;;;;;6.58;88.98;100393.63;1708184;83;27460;-77
2022/12/31 04:49:40;;;;;;;33.85;19.23;;;;;;;6.59;89.04;100381.12;1746979;80;25293;-76
2022/12/31 04:52:06;;;;;;;32.25;19.42;;;;;;;6.61;89.09;100381.80;1729410;79;26393;-77
2022/12/31 04:54:32;;;;;;;32.35;19.23;;;;;;;6.65;89.13;100391.14;1724839;83;25759;-76
2022/12/31 04:56:58;;;;;;;33.25;18.95;;;;;;;6.65;89.23;100389.28;1734950;82;26162;-76
2022/12/31 04:59:25;;;;;;;33.38;19.32;;;;;;;6.68;89.25;100390.30;1729488;81;27437;-76
2022/12/31 05:01:51;;;;;;;32.67;18.52;;;;;;;6.71;89.24;100387.80;1730221;81;25763;-77
2022/12/31 05:04:17;;;;;;;31.02;18.67;;;;;;;6.74;89.31;100382.97;1725178;81;25806;-76
2022/12/31 05:06:43;;;;;;;29.92;18.15;;;;;;;6.76;89.32;100386.29;1745903;80;26516;-75
2022/12/31 05:09:10;;;;;;;29.60;18.67;;;;;;;6.79;89.42;100397.11;1713198;83;25948;-77
2022/12/31 05:11:37;;;;;;;31.02;18.00;;;;;;;6.82;89.48;100394.13;1742729;80;28255;-76
2022/12/31 05:14:03;;;;;;;31.40;17.98;;;;;;;6.84;89.56;100398.25;1741357;80;26026;-76
2022/12/31 05:16:29;;;;;;;28.38;17.42;;;;;;;6.87;89.64;100395.27;1746718;80;26474;-76
2022/12/31 05:18:55;;;;;;;29.75;18.10;;;;;;;6.89;89.63;100391.94;1741751;81;25868;-77
2022/12/31 05:21:22;;;;;;;29.42;17.48;;;;;;;6.92;89.69;100396.10;1705561;83;25770;-76
2022/12/31 05:23:50;;;;;;;25.55;16.15;;;;;;;6.95;89.81;100399.25;1709031;82;27538;-77
2022/12/31 05:26:17;;;;;;;28.00;15.88;;;;;;;6.99;89.85;100395.77;1739517;81;25457;-76
2022/12/31 05:28:43;;;;;;;27.87;16.57;;;;;;;7.00;89.87;100400.08;1749012;80;25771;-76
2022/12/31 05:31:09;;;;;;;30.27;17.10;;;;;;;7.04;89.97;100393.41;1736844;81;26430;-76
2022/12/31 05:33:36;;;;;;;27.58;16.12;;;;;;;7.07;90.01;100384.26;1731220;82;25941;-76
2022/12/31 05:36:02;;;;;;;23.27;15.68;;;;;;;7.08;90.03;100378.75;1723289;82;27548;-76
2022/12/31 05:38:29;;;;;;;26.87;16.70;;;;;;;7.10;90.14;100381.27;1719346;83;26402;-76
2022/12/31 05:41:02;;;;;;;25.77;16.27;;;;;;;7.11;90.16;100381.09;1719102;82;25955;-77
2022/12/31 05:43:30;;;;;;;26.57;15.65;;;;;;;7.13;90.21;100381.75;1725142;81;25838;-76
2022/12/31 05:46:00;;;;;;;27.48;16.20;;;;;;;7.13;90.23;100381.75;1727089;82;26370;-77
2022/12/31 05:48:28;;;;;;;25.62;16.20;;;;;;;7.15;90.33;100381.08;1726458;82;27470;-76
2022/12/31 05:50:55;;;;;;;25.15;15.55;;;;;;;7.15;90.45;100379.75;1729102;82;25929;-77
2022/12/31 05:53:22;;;;;;;26.52;16.37;;;;;;;7.16;90.48;100377.92;1720803;82;25841;-76
2022/12/31 05:55:48;;;;;;;30.85;17.62;;;;;;;7.16;90.55;100385.42;1722206;82;26549;-77
2022/12/31 05:58:15;;;;;;;25.52;16.48;;;;;;;7.16;90.61;100380.09;1722871;82;25786;-77
2022/12/31 06:00:41;;;;;;;27.87;15.70;;;;;;;7.18;90.75;100378.09;1720663;82;27447;-76
2022/12/31 06:03:08;;;;;;;26.33;16.15;;;;;;;7.20;90.75;100380.58;1722108;82;25944;-76
2022/12/31 06:05:41;;;;;;;27.98;16.02;;;;;;;7.21;90.78;100378.22;1721795;82;25779;-76
2022/12/31 06:08:10;;;;;;;21.55;14.68;;;;;;;7.21;90.85;100375.56;1721081;82;26573;-76
2022/12/31 06:10:38;;;;;;;24.87;15.23;;;;;;;7.21;90.83;100374.23;1723837;82;25807;-76
2022/12/31 06:13:05;;;;;;;24.02;14.70;;;;;;;7.20;90.84;100377.42;1722212;82;28425;-76
2022/12/31 06:15:31;;;;;;;25.27;15.38;;;;;;;7.20;90.88;100380.08;1722608;82;26762;-76
2022/12/31 06:17:58;;;;;;;25.23;15.28;;;;;;;7.21;90.94;100380.88;1723108;82;25866;-77
2022/12/31 06:20:24;;;;;;;24.45;14.50;;;;;;;7.22;91.05;100375.91;1722863;82;25772;-77
2022/12/31 06:22:50;;;;;;;26.93;15.78;;;;;;;7.23;91.24;100378.91;1722674;82;25828;-77
2022/12/31 06:25:17;;;;;;;24.35;15.08;;;;;;;7.23;91.32;100379.72;1721478;81;27948;-76
2022/12/31 06:27:43;;;;;;;22.85;14.30;;;;;;;7.24;91.45;100384.06;1723083;82;25793;-76
2022/12/31 06:30:11;;;;;;;21.12;13.50;;;;;;;7.25;91.61;100379.05;1722541;82;25237;-77
2022/12/31 06:32:39;;;;;;;22.32;14.13;;;;;;;7.28;91.76;100381.88;1723179;82;26418;-76
2022/12/31 06:35:06;;;;;;;23.30;14.23;;;;;;;7.30;91.92;100394.52;1724222;81;25921;-77
2022/12/31 06:37:33;;;;;;;24.80;14.15;;;;;;;7.32;92.04;100385.36;1718668;83;27465;-76
2022/12/31 06:39:59;;;;;;;23.52;13.85;;;;;;;7.34;92.13;100391.84;1745992;80;25894;-76
2022/12/31 06:42:30;;;;;;;19.55;12.10;;;;;;;7.36;92.27;100388.50;1705747;82;25845;-76
2022/12/31 06:44:57;;;;;;;23.87;12.90;;;;;;;7.37;92.41;100388.85;1732457;81;26644;-77
2022/12/31 06:47:24;;;;;;;21.17;13.28;;;;;;;7.39;92.49;100396.17;1714110;83;25677;-77
2022/12/31 06:49:51;;;;;;;21.95;13.28;;;;;;;7.41;92.69;100395.50;1737962;81;28254;-77
2022/12/31 06:52:17;;;;;;;19.42;11.53;;;;;;;7.44;92.72;100403.16;1707487;83;25707;-76
2022/12/31 06:54:44;;;;;;;19.02;12.20;;;;;;;7.46;92.76;100405.16;1701433;83;26445;-76
2022/12/31 06:57:13;;;;;;;21.65;12.82;;;;;;;7.48;92.84;100401.32;1703561;83;26566;-76
2022/12/31 06:59:42;;;;;;;22.67;12.65;;;;;;;7.50;92.89;100399.80;1724774;82;26598;-76
2022/12/31 07:02:42;;;;;;;19.77;12.65;;;;;;;7.53;92.94;100409.61;1730648;82;27491;-76
2022/12/31 07:05:17;;;;;;;17.32;11.40;;;;;;;7.56;92.99;100413.28;1727706;82;26126;-77
2022/12/31 07:08:03;;;;;;;19.50;12.10;;;;;;;7.58;93.06;100426.42;1738354;81;26574;-76
2022/12/31 07:10:41;;;;;;;17.52;11.53;;;;;;;7.60;93.10;100430.59;1739273;81;25740;-77
2022/12/31 07:13:25;;;;;;;17.52;11.55;;;;;;;7.62;93.19;100433.91;1728207;80;25805;-76
2022/12/31 07:16:16;;;;;;;18.05;12.03;;;;;;;7.64;93.21;100441.23;1726228;81;27491;-76
2022/12/31 07:19:18;;;;;;;20.20;13.10;;;;;;;7.67;93.31;100450.23;1732669;81;25840;-76
2022/12/31 07:21:47;;;;;;;15.53;11.83;;;;;;;7.68;93.35;100443.05;1732591;81;25800;-77
2022/12/31 07:24:15;;;;;;;20.02;11.95;;;;;;;7.70;93.35;100448.53;1740592;80;26703;-76
2022/12/31 07:26:47;;;;;;;17.70;11.08;;;;;;;7.73;93.39;100451.37;1738856;81;25654;-76
2022/12/31 07:29:43;;;;;;;20.52;11.93;;;;;;;7.75;93.39;100446.69;1732240;81;27596;-76
2022/12/31 07:32:36;;;;;;;16.07;11.12;;;;;;;7.76;93.42;100444.37;1738590;81;26007;-76
2022/12/31 07:35:51;;;;;;;20.68;11.73;;;;;;;7.78;93.45;100447.70;1725373;82;26481;-76
2022/12/31 07:38:59;;;;;;;18.15;11.28;;;;;;;7.79;93.46;100448.00;1729545;82;25789;-77
2022/12/31 07:41:40;;;;;;;16.82;10.65;;;;;;;7.82;93.53;100441.01;1727234;82;26495;-77
2022/12/31 07:44:38;;;;;;;18.30;10.80;;;;;;;7.84;93.61;100441.66;1731485;82;27480;-76
2022/12/31 07:47:13;;;;;;;18.27;10.82;;;;;;;7.86;93.62;100436.98;1715340;82;26486;-77
2022/12/31 07:49:42;;;;;;;16.07;11.60;;;;;;;7.89;93.60;100431.29;1721413;82;25881;-76
2022/12/31 07:52:09;;;;;;;15.95;11.25;;;;;;;7.92;93.61;100447.45;1727211;81;26998;-76
2022/12/31 07:54:35;;;;;;;16.73;10.40;;;;;;;7.94;93.57;100454.77;1735556;81;25784;-77
2022/12/31 07:57:02;;;;;;;15.35;10.55;;;;;;;7.97;93.60;100452.61;1733735;81;28251;-76
2022/12/31 08:00:12;;;;;;;18.10;10.30;;;;;;;7.99;93.55;100453.77;1727813;81;25375;-77
2022/12/31 08:02:53;;;;;;;16.87;11.22;;;;;;;8.01;93.55;100463.27;1738646;81;25899;-77
2022/12/31 08:05:52;;;;;;;18.10;11.15;;;;;;;8.04;93.57;100464.75;1706705;82;25903;-77
2022/12/31 08:08:59;;;;;;;20.60;11.55;;;;;;;8.09;93.85;100455.70;1704766;83;25889;-76
2022/12/31 08:11:57;;;;;;;24.57;13.72;;;;;;;8.12;93.60;100454.04;1743619;80;27662;-76
2022/12/31 08:14:26;;;;;;;20.23;13.50;;;;;;;8.14;93.57;100446.69;1749048;80;25773;-76
2022/12/31 08:16:54;;;;;;;19.50;11.50;;;;;;;8.15;93.55;100450.51;1722109;82;36223;-76
2022/12/31 08:19:31;;;;;;;24.98;14.65;;;;;;;8.19;93.54;100451.02;1721415;82;27033;-76
2022/12/31 08:22:18;;;;;;;38.65;21.87;;;;;;;8.22;93.51;100460.82;1725042;82;26388;-76
2022/12/31 08:25:01;;;;;;;33.30;21.60;;;;;;;8.25;93.52;100466.31;1681808;81;28418;-76
2022/12/31 08:27:55;;;;;;;55.88;30.72;;;;;;;8.29;93.57;100468.49;1693365;83;25834;-77
2022/12/31 08:30:27;;;;;;;102.30;56.55;;;;;;;8.32;93.51;100477.47;1739109;81;25748;-76
2022/12/31 08:33:21;;;;;;;30.65;20.05;;;;;;;8.36;93.44;100481.97;1716015;83;25787;-82
2022/12/31 08:39:19;;;;;;;21.05;14.38;;;;;;;8.53;93.26;100488.88;1901957;72;25798;-84
2022/12/31 08:41:49;;;;;;;15.53;12.05;;;;;;;8.54;93.22;100498.53;1883208;74;25916;-83
2022/12/31 08:44:59;;;;;;;15.68;11.57;;;;;;;8.58;93.17;100490.49;1836987;76;27430;-83
2022/12/31 08:47:36;;;;;;;18.30;13.25;;;;;;;8.62;93.14;100493.66;1841035;76;25754;-77
2022/12/31 08:50:04;;;;;;;17.52;12.47;;;;;;;8.65;93.14;100490.12;1848879;76;25860;-75
2022/12/31 08:52:31;;;;;;;14.28;9.28;;;;;;;8.69;93.13;100487.92;1884594;74;25303;-84
2022/12/31 08:54:58;;;;;;;18.15;11.18;;;;;;;8.73;93.03;100484.72;1887806;75;26299;-82
2022/12/31 08:57:36;;;;;;;20.12;13.48;;;;;;;8.76;92.95;100482.20;1854369;75;27411;-84
2022/12/31 09:00:12;;;;;;;35.38;22.67;;;;;;;8.79;92.97;100475.99;1851720;76;25938;-86
2022/12/31 09:03:19;;;;;;;22.52;11.60;;;;;;;8.83;92.94;100476.48;1846079;76;25888;-76
2022/12/31 09:06:03;;;;;;;18.32;12.18;;;;;;;8.87;92.85;100472.45;1869793;75;25939;-85
2022/12/31 09:08:44;;;;;;;16.52;10.15;;;;;;;8.90;92.76;100460.89;1863141;75;25236;-82
2022/12/31 09:11:20;;;;;;;;;;;;;;;8.94;92.73;100450.17;1830025;77;27602;-85
2022/12/31 09:14:19;;;;;;;33.63;22.50;;;;;;;8.97;92.70;100445.81;1841553;76;25281;-85
2022/12/31 09:17:00;;;;;;;46.00;34.03;;;;;;;8.97;92.72;100435.62;1852274;76;25833;-78
2022/12/31 09:19:26;;;;;;;41.35;28.62;;;;;;;8.99;92.70;100444.29;1880358;74;25278;-78
2022/12/31 09:21:54;;;;;;;24.70;18.48;;;;;;;8.99;92.64;100445.62;1889464;74;25944;-79
2022/12/31 09:24:22;;;;;;;23.00;18.00;;;;;;;9.02;92.56;100448.78;1887141;74;27459;-89
2022/12/31 09:26:54;;;;;;;19.82;14.45;;;;;;;9.03;92.64;100454.44;1890737;74;25789;-83
2022/12/31 09:29:58;;;;;;;21.93;16.70;;;;;;;9.07;92.62;100453.06;1859014;75;25781;-84
2022/12/31 09:32:53;;;;;;;21.15;14.10;;;;;;;9.09;92.60;100448.87;1873956;75;26161;-86
2022/12/31 09:35:42;;;;;;;25.15;15.38;;;;;;;9.11;92.56;100447.68;1892098;75;25563;-82
2022/12/31 09:38:29;;;;;;;31.25;18.30;;;;;;;9.15;92.42;100449.50;1870572;75;27442;-81
2022/12/31 09:41:33;;;;;;;18.82;12.28;;;;;;;9.17;92.44;100445.61;1855174;76;25926;-79
2022/12/31 09:44:22;;;;;;;22.30;13.35;;;;;;;9.19;92.36;100434.27;1839941;76;25771;-80
2022/12/31 09:47:27;;;;;;;17.50;11.57;;;;;;;9.24;92.50;100445.72;1870759;75;26001;-81
2022/12/31 09:50:37;;;;;;;23.25;14.68;;;;;;;9.31;92.63;100457.36;1837925;76;25769;-76
2022/12/31 09:53:30;;;;;;;17.07;10.90;;;;;;;9.38;92.75;100444.93;1863229;74;27440;-79
2022/12/31 09:56:26;;;;;;;18.48;12.85;;;;;;;9.47;92.70;100443.00;1856950;74;25834;-78
2022/12/31 09:59:27;;;;;;;15.93;10.53;;;;;;;9.55;92.79;100424.19;1828042;76;26464;-77
2022/12/31 10:02:25;;;;;;;17.70;10.38;;;;;;;9.62;92.74;100419.28;1872743;75;26468;-79
2022/12/31 10:05:18;;;;;;;28.52;21.27;;;;;;;9.70;92.81;100424.52;1852009;76;25744;-77
2022/12/31 10:08:18;;;;;;;22.32;17.35;;;;;;;9.77;92.84;100420.59;1858514;76;27518;-79
2022/12/31 10:11:19;;;;;;;26.42;19.87;;;;;;;9.84;92.58;100424.17;1867232;76;25699;-78
2022/12/31 10:14:29;;;;;;;17.30;11.97;;;;;;;9.91;92.62;100417.91;1837729;76;26320;-82
2022/12/31 10:17:03;;;;;;;20.25;14.87;;;;;;;9.96;92.36;100419.52;1855146;75;25661;-83
2022/12/31 10:19:44;;;;;;;15.88;10.70;;;;;;;10.01;92.31;100410.41;1853660;75;25921;-86
2022/12/31 10:22:48;;;;;;;;;;;;;;;10.06;92.00;100408.50;1860153;75;27636;-81
2022/12/31 10:25:38;;;;;;;32.15;21.70;;;;;;;10.09;92.00;100400.92;1857898;75;26158;-79
2022/12/31 10:28:36;;;;;;;83.90;51.90;;;;;;;10.12;91.94;100398.41;1862618;75;25894;-82
2022/12/31 10:31:15;;;;;;;84.35;44.88;;;;;;;10.15;91.87;100395.38;1856578;75;25608;-81
2022/12/31 10:34:22;;;;;;;35.08;25.82;;;;;;;10.20;91.83;100382.77;1876341;74;25304;-80
2022/12/31 10:36:54;;;;;;;26.95;20.70;;;;;;;10.24;91.72;100371.48;1840331;77;28229;-83
2022/12/31 10:39:43;;;;;;;20.43;15.98;;;;;;;10.28;91.70;100365.23;1834769;76;25361;-82
2022/12/31 10:42:36;;;;;;;17.48;14.83;;;;;;;10.30;91.48;100353.83;1833068;76;25263;-80
2022/12/31 10:45:32;;;;;;;11.28;9.05;;;;;;;10.33;91.62;100342.75;1837958;76;25831;-83
2022/12/31 10:48:07;;;;;;;12.93;8.48;;;;;;;10.36;91.51;100348.54;1795629;76;26037;-79
2022/12/31 10:51:17;;;;;;;12.58;10.13;;;;;;;10.40;91.50;100348.97;1836793;76;27449;-79
2022/12/31 10:54:26;;;;;;;9.80;6.90;;;;;;;10.43;91.53;100350.78;1810299;77;26094;-80
2022/12/31 10:57:21;;;;;;;11.53;7.12;;;;;;;10.49;91.65;100351.84;1813675;77;25283;-83
2022/12/31 10:59:56;;;;;;;10.10;6.55;;;;;;;10.55;91.49;100347.05;1859939;75;25591;-84
2022/12/31 11:02:59;;;;;;;10.23;6.30;;;;;;;10.58;91.48;100342.16;1861094;75;25729;-83
2022/12/31 11:05:59;;;;;;;9.30;6.37;;;;;;;10.60;91.34;100352.67;1868196;75;27457;-84
2022/12/31 11:08:51;;;;;;;8.85;6.22;;;;;;;10.62;91.31;100364.86;1861340;75;25913;-81
2022/12/31 11:11:35;;;;;;;10.75;6.00;;;;;;;10.64;91.20;100358.80;1846659;76;26242;-82
2022/12/31 11:14:15;;;;;;;8.78;5.70;;;;;;;10.66;91.22;100354.08;1842542;76;26312;-78
2022/12/31 11:17:22;;;;;;;40.60;29.60;;;;;;;10.69;91.09;100346.97;1876068;74;32942;-78
2022/12/31 11:20:00;;;;;;;17.82;12.23;;;;;;;10.72;91.35;100338.56;1856869;75;27430;-78
2022/12/31 11:22:41;;;;;;;11.50;9.13;;;;;;;10.78;91.35;100344.98;1851010;76;26396;-78
2022/12/31 11:25:31;;;;;;;11.22;8.90;;;;;;;10.81;91.32;100353.48;1877501;76;25206;-78
2022/12/31 11:28:18;;;;;;;9.63;7.00;;;;;;;10.83;91.33;100327.31;1870079;75;25725;-78
2022/12/31 11:31:11;;;;;;;10.10;6.22;;;;;;;10.88;91.34;100324.06;1810407;77;25792;-78
2022/12/31 11:34:23;;;;;;;11.03;7.03;;;;;;;10.92;91.17;100328.50;1852824;76;27523;-78
2022/12/31 11:37:28;;;;;;;8.48;5.83;;;;;;;10.96;91.35;100327.92;1843400;76;25743;-78
2022/12/31 11:40:15;;;;;;;9.25;5.55;;;;;;;10.98;91.28;100336.59;1840606;76;25790;-79
2022/12/31 11:43:34;;;;;;;9.68;7.42;;;;;;;10.99;91.85;100331.53;1839610;76;25763;-79
2022/12/31 11:46:46;;;;;;;6.95;5.12;;;;;;;11.02;92.13;100319.59;1749843;80;25973;-79
2022/12/31 11:49:38;;;;;;;9.25;7.03;;;;;;;11.10;92.29;100310.09;1759475;80;27463;-78
2022/12/31 11:52:28;;;;;;;7.30;5.62;;;;;;;11.15;91.95;100298.23;1843338;76;25989;-78
2022/12/31 11:55:18;;;;;;;12.20;5.62;;;;;;;11.19;91.74;100317.75;1851880;76;26169;-78
2022/12/31 11:57:50;;;;;;;15.95;8.50;;;;;;;11.22;91.49;100319.22;1831013;76;25981;-78
2022/12/31 12:00:21;;;;;;;18.17;13.80;;;;;;;11.25;91.62;100321.48;1858648;75;25507;-78
2022/12/31 12:02:56;;;;;;;12.82;8.15;;;;;;;11.24;91.91;100313.98;1863250;75;28670;-78
2022/12/31 12:05:25;;;;;;;17.02;8.13;;;;;;;11.23;92.34;100305.61;1868880;75;26273;-78
2022/12/31 12:07:53;;;;;;;10.23;4.83;;;;;;;11.21;92.59;100301.46;1871610;75;25717;-78
2022/12/31 12:10:29;;;;;;;13.25;9.65;;;;;;;11.18;92.86;100305.90;1860390;75;25929;-83
2022/12/31 12:12:58;;;;;;;11.28;7.15;;;;;;;11.15;93.02;100317.84;1840320;75;25864;-85